• Join FlightAware (Why Join?)
  • Login
  • US Flag 
07:02PM EDT


 

Airport Tracker/Info


-or-


 

Live Flight TrackerFlight Track Log ✈ ASQ4663 ✈ 18-Jul-2013 ✈ KOKC - KIAH

Flight Track Log - Related Links

Times and Time Zones

All times are in EDT time to prevent confusion due to time zone crossing. See the ASQ4663 flight status page for this flight to view local times or setup timezone preferences in your user account.

Time Position Orientation Groundspeed Altitude Reporting Facility
EDT Latitude Longitude Course Direction KTS MPH feet Rate Location/Type
03:54PM 35.3747 -97.6122 154° Southeast 166 191 1,900  Level Fort Worth Center
03:54PM 35.3394 -97.6069 173° South 169 194 3,500 1,740 Climbing Fort Worth Center
03:55PM 35.2850 -97.5992 173° South 227 261 4,800 1,620 Climbing Fort Worth Center
03:56PM 35.2392 -97.5914 172° South 252 290 6,000 1,980 Climbing Fort Worth Center
03:57PM 35.0353 -97.4419 175° South  Level Estimated
03:58PM 34.9459 -97.4024 162° South  Level Estimated
03:58PM 35.1036 -97.5761 175° South 270 311 10,000  Level Fort Worth Center
03:59PM 34.8564 -97.3630 154° Southeast  Level Estimated
03:59PM 35.0161 -97.5631 173° South 292 336 10,700  Level Fort Worth Center
04:00PM 34.9222 -97.5478 172° South 319 367 11,800 1,080 Climbing Fort Worth Center
04:01PM 34.8242 -97.5197 167° South 349 402 12,900 1,020 Climbing Fort Worth Center
04:02PM 34.7261 -97.4867 165° South 359 413 13,900 1,020 Climbing Fort Worth Center
04:03PM 34.6281 -97.4564 166° South 359 413 15,000 1,020 Climbing Fort Worth Center
04:04PM 34.5281 -97.4236 165° South 367 422 16,000 1,020 Climbing Fort Worth Center
04:05PM 34.4278 -97.3883 164° South 367 422 17,100 900 Climbing Fort Worth Center
04:06PM 34.3278 -97.3606 167° South 372 428 17,900 900 Climbing Fort Worth Center
04:07PM 34.2275 -97.3281 165° South 372 428 19,000 1,080 Climbing Fort Worth Center
04:08PM 34.1253 -97.2931 164° South 372 428 20,100 1,020 Climbing Fort Worth Center
04:09PM 34.0481 -97.2381 149° Southeast 372 428 21,100 960 Climbing Fort Worth Center
04:10PM 33.9728 -97.1481 135° Southeast 367 422 22,100 1,020 Climbing Fort Worth Center
04:11PM 33.8975 -97.0531 134° Southeast 379 436 23,200 900 Climbing Fort Worth Center
04:12PM 33.8094 -96.9811 146° Southeast 389 448 24,000 600 Climbing Fort Worth Center
04:13PM 33.6947 -96.9617 172° South 389 448 24,400 480 Climbing Fort Worth Center
04:14PM 33.5797 -96.9522 176° South 398 458 25,000 840 Climbing Fort Worth Center
04:15PM 33.4669 -96.9453 177° South 411 473 26,100 1,260 Climbing Fort Worth Center
04:16PM 33.3564 -96.9358 176° South 411 473 27,600 1,320 Climbing Fort Worth Center
04:17PM 33.2500 -96.9292 177° South 398 458 28,800 660 Climbing Fort Worth Center
04:18PM 33.1372 -96.9197 176° South 393 452 29,000 60 Climbing Fort Worth Center
04:19PM 33.0056 -96.9131 178° South 418 481 29,000  Level Fort Worth Center
04:20PM 32.8928 -96.9039 176° South 442 509 29,000  Level Fort Worth Center
04:21PM 32.7800 -96.8847 172° South 452 520 29,000  Level Fort Worth Center
04:22PM 32.6256 -96.8731 176° South 463 533 29,000  Level Fort Worth Center
04:23PM 32.4961 -96.8814 183° South 463 533 29,000  Level Fort Worth Center
04:24PM 32.3753 -96.9264 197° South 463 533 29,000  Level Fort Worth Center
04:25PM 32.2586 -96.9686 197° South 451 519 29,000  Level Fort Worth Center
04:26PM 32.1689 -97.0011 197° South 446 513 29,000  Level Fort Worth Center
04:27PM 32.0414 -96.9403 158° South 392 451 29,000  Level Fort Worth Center
04:28PM 31.9594 -96.8650 142° Southeast 407 468 29,000  Level Fort Worth Center
04:29PM 31.8528 -96.7800 146° Southeast 412 474 29,000  Level Fort Worth Center
04:30PM 31.7261 -96.6789 146° Southeast 426 490 29,000  Level Houston Center
04:31PM 31.6244 -96.5969 146° Southeast 433 498 29,000  Level Houston Center
04:32PM 31.5214 -96.5178 147° Southeast 434 499 29,000 -300 Level Houston Center
04:33PM 31.4103 -96.4550 154° Southeast 435 501 28,400 -780 Descending Houston Center
04:34PM 31.3008 -96.3853 151° Southeast 438 504 27,400 -1,320 Descending Houston Center
04:35PM 31.1731 -96.3058 152° Southeast 440 506 25,700 -1,980 Descending Houston Center
04:36PM 31.0664 -96.2403 152° Southeast 432 497 23,400 -2,400 Descending Houston Center
04:37PM 30.9622 -96.1739 151° Southeast 426 490 20,800 -2,460 Descending Houston Center
04:38PM 30.8600 -96.1139 153° Southeast 413 475 18,300 -2,340 Descending Houston Center
04:39PM 30.7664 -96.0550 152° Southeast 392 451 16,000 -2,280 Descending Houston Center
04:40PM 30.6725 -95.9981 152° Southeast 373 429 13,700 -2,280 Descending Houston Center
04:41PM 30.5931 -95.9511 153° Southeast 337 388 11,700 -1,920 Descending Houston Center
04:42PM 30.5108 -95.9000 152° Southeast 330 380 10,100 -840 Descending Houston Center
04:43PM 30.4342 -95.8603 156° South 278 320 10,000 -480 Descending Houston Center
04:44PM 30.3581 -95.8547 176° South 268 308 9,200 -840 Descending Houston Center
04:45PM 30.2842 -95.8511 178° South 241 277 8,300 -600 Descending Houston Center
04:46PM 30.2189 -95.8492 179° South 227 261 8,000 -180 Descending Houston Center
04:47PM 30.1511 -95.8400 173° South 238 274 8,000  Level Houston Center
04:48PM 30.1008 -95.7928 141° Southeast 228 262 8,000 -780 Level Houston Center
04:50PM 30.0503 -95.7456 141° Southeast 226 260 6,500 -1,500 Descending Houston Center
04:51PM 29.9997 -95.6958 140° Southeast 231 266 5,000 -1,080 Descending Houston Center
04:52PM 29.9917 -95.6269 98° East 229 264 4,400 -840 Descending Houston Center
04:53PM 29.9914 -95.5547 90° East 217 250 3,300 -1,080 Descending Houston Center
04:54PM 29.9917 -95.4894 90° East 189 217 2,300 -1,020 Descending Houston Center